sensor_id;sensor_type;location;lat;lon;timestamp;pressure;altitude;pressure_sealevel;temperature;humidity
23363;BME280;11853;48.080;11.960;2023-05-27T00:00:07;95442.88;;;16.35;86.00
23363;BME280;11853;48.080;11.960;2023-05-27T00:02:34;95439.19;;;16.36;86.05
23363;BME280;11853;48.080;11.960;2023-05-27T00:04:59;95430.28;;;16.44;86.00
23363;BME280;11853;48.080;11.960;2023-05-27T00:07:25;95434.69;;;16.37;85.91
23363;BME280;11853;48.080;11.960;2023-05-27T00:09:51;95441.06;;;16.19;86.84
23363;BME280;11853;48.080;11.960;2023-05-27T00:12:17;95438.41;;;16.19;86.73
23363;BME280;11853;48.080;11.960;2023-05-27T00:14:43;95430.22;;;16.13;86.83
23363;BME280;11853;48.080;11.960;2023-05-27T00:17:08;95428.22;;;16.15;87.20
23363;BME280;11853;48.080;11.960;2023-05-27T00:19:35;95431.25;;;16.12;87.56
23363;BME280;11853;48.080;11.960;2023-05-27T00:22:01;95427.75;;;16.11;86.93
23363;BME280;11853;48.080;11.960;2023-05-27T00:24:26;95428.91;;;16.17;86.64
23363;BME280;11853;48.080;11.960;2023-05-27T00:26:52;95427.41;;;16.14;86.95
23363;BME280;11853;48.080;11.960;2023-05-27T00:29:17;95430.22;;;16.13;86.19
23363;BME280;11853;48.080;11.960;2023-05-27T00:31:43;95431.94;;;16.06;86.13
23363;BME280;11853;48.080;11.960;2023-05-27T00:34:09;95427.28;;;15.99;86.48
23363;BME280;11853;48.080;11.960;2023-05-27T00:36:34;95426.97;;;15.86;87.48
23363;BME280;11853;48.080;11.960;2023-05-27T00:39:00;95424.63;;;15.83;87.59
23363;BME280;11853;48.080;11.960;2023-05-27T00:41:26;95424.28;;;15.94;86.09
23363;BME280;11853;48.080;11.960;2023-05-27T00:43:53;95421.94;;;15.91;85.63
23363;BME280;11853;48.080;11.960;2023-05-27T00:46:18;95425.31;;;15.77;86.02
23363;BME280;11853;48.080;11.960;2023-05-27T00:48:46;95421.31;;;15.73;87.07
23363;BME280;11853;48.080;11.960;2023-05-27T00:51:12;95426.31;;;15.84;85.57
23363;BME280;11853;48.080;11.960;2023-05-27T00:53:42;95420.81;;;15.77;86.01
23363;BME280;11853;48.080;11.960;2023-05-27T00:56:09;95410.59;;;15.81;85.42
23363;BME280;11853;48.080;11.960;2023-05-27T00:58:36;95427.00;;;15.78;85.58
23363;BME280;11853;48.080;11.960;2023-05-27T01:01:03;95420.97;;;15.76;85.25
23363;BME280;11853;48.080;11.960;2023-05-27T01:03:29;95416.78;;;15.65;85.88
23363;BME280;11853;48.080;11.960;2023-05-27T01:06:13;95418.59;;;15.65;85.53
23363;BME280;11853;48.080;11.960;2023-05-27T01:08:56;95424.66;;;15.75;84.98
23363;BME280;11853;48.080;11.960;2023-05-27T01:11:28;95419.47;;;15.57;85.19
23363;BME280;11853;48.080;11.960;2023-05-27T01:13:59;95420.97;;;15.60;84.81
23363;BME280;11853;48.080;11.960;2023-05-27T01:16:27;95424.97;;;15.55;84.57
23363;BME280;11853;48.080;11.960;2023-05-27T01:18:55;95412.97;;;15.51;84.90
23363;BME280;11853;48.080;11.960;2023-05-27T01:21:25;95419.78;;;15.62;84.59
23363;BME280;11853;48.080;11.960;2023-05-27T01:24:02;95416.81;;;15.57;84.80
23363;BME280;11853;48.080;11.960;2023-05-27T01:26:28;95414.28;;;15.55;84.57
23363;BME280;11853;48.080;11.960;2023-05-27T01:28:54;95416.47;;;15.44;85.19
23363;BME280;11853;48.080;11.960;2023-05-27T01:31:36;95414.81;;;15.43;85.35
23363;BME280;11853;48.080;11.960;2023-05-27T01:34:13;95406.78;;;15.35;85.59
23363;BME280;11853;48.080;11.960;2023-05-27T01:36:45;95406.59;;;15.36;84.79
23363;BME280;11853;48.080;11.960;2023-05-27T01:39:12;95408.63;;;15.34;85.02
23363;BME280;11853;48.080;11.960;2023-05-27T01:41:39;95410.28;;;15.35;84.62
23363;BME280;11853;48.080;11.960;2023-05-27T01:44:06;95405.44;;;15.30;84.54
23363;BME280;11853;48.080;11.960;2023-05-27T01:46:32;95415.97;;;15.24;85.42
23363;BME280;11853;48.080;11.960;2023-05-27T01:48:58;95402.47;;;15.25;84.87
23363;BME280;11853;48.080;11.960;2023-05-27T01:51:23;95409.81;;;15.23;84.77
23363;BME280;11853;48.080;11.960;2023-05-27T01:53:49;95410.97;;;15.13;85.09
23363;BME280;11853;48.080;11.960;2023-05-27T01:56:14;95412.81;;;15.12;85.17
23363;BME280;11853;48.080;11.960;2023-05-27T01:58:41;95412.97;;;15.02;85.53
23363;BME280;11853;48.080;11.960;2023-05-27T02:01:06;95406.28;;;15.15;84.79
23363;BME280;11853;48.080;11.960;2023-05-27T02:03:32;95404.28;;;14.92;85.89
23363;BME280;11853;48.080;11.960;2023-05-27T02:05:57;95404.78;;;14.96;86.19
23363;BME280;11853;48.080;11.960;2023-05-27T02:08:23;95401.28;;;14.95;85.42
23363;BME280;11853;48.080;11.960;2023-05-27T02:10:48;95405.91;;;14.85;86.62
23363;BME280;11853;48.080;11.960;2023-05-27T02:13:14;95400.25;;;14.80;86.47
23363;BME280;11853;48.080;11.960;2023-05-27T02:15:40;95403.44;;;14.83;86.59
23363;BME280;11853;48.080;11.960;2023-05-27T02:18:05;95398.94;;;14.92;85.92
23363;BME280;11853;48.080;11.960;2023-05-27T02:20:31;95407.94;;;14.83;85.98
23363;BME280;11853;48.080;11.960;2023-05-27T02:22:57;95398.56;;;14.71;86.05
23363;BME280;11853;48.080;11.960;2023-05-27T02:25:22;95405.41;;;14.65;86.96
23363;BME280;11853;48.080;11.960;2023-05-27T02:27:48;95405.25;;;14.67;86.46
23363;BME280;11853;48.080;11.960;2023-05-27T02:30:14;95403.22;;;14.60;85.75
23363;BME280;11853;48.080;11.960;2023-05-27T02:32:40;95401.38;;;14.53;87.09
23363;BME280;11853;48.080;11.960;2023-05-27T02:35:06;95401.25;;;14.62;86.52
23363;BME280;11853;48.080;11.960;2023-05-27T02:37:33;95400.00;;;14.49;86.89
23363;BME280;11853;48.080;11.960;2023-05-27T02:39:58;95401.88;;;14.56;86.55
23363;BME280;11853;48.080;11.960;2023-05-27T02:42:24;95403.81;;;14.46;87.06
23363;BME280;11853;48.080;11.960;2023-05-27T02:44:50;95392.13;;;14.39;87.68
23363;BME280;11853;48.080;11.960;2023-05-27T02:47:15;95404.50;;;14.48;86.47
23363;BME280;11853;48.080;11.960;2023-05-27T02:49:41;95402.13;;;14.37;87.46
23363;BME280;11853;48.080;11.960;2023-05-27T02:52:06;95402.63;;;14.32;87.32
23363;BME280;11853;48.080;11.960;2023-05-27T02:54:32;95396.41;;;14.24;88.47
23363;BME280;11853;48.080;11.960;2023-05-27T02:56:57;95399.94;;;14.32;87.29
23363;BME280;11853;48.080;11.960;2023-05-27T02:59:23;95403.47;;;14.41;87.11
23363;BME280;11853;48.080;11.960;2023-05-27T03:01:48;95399.44;;;14.29;87.54
23363;BME280;11853;48.080;11.960;2023-05-27T03:04:14;95391.22;;;14.22;87.62
23363;BME280;11853;48.080;11.960;2023-05-27T03:06:41;95393.88;;;14.22;88.23
23363;BME280;11853;48.080;11.960;2023-05-27T03:09:07;95391.38;;;14.12;88.74
23363;BME280;11853;48.080;11.960;2023-05-27T03:11:33;95392.06;;;14.14;88.69
23363;BME280;11853;48.080;11.960;2023-05-27T03:13:58;95393.53;;;14.09;89.41
23363;BME280;11853;48.080;11.960;2023-05-27T03:16:24;95396.56;;;14.14;89.11
23363;BME280;11853;48.080;11.960;2023-05-27T03:18:50;95395.41;;;14.16;89.10
23363;BME280;11853;48.080;11.960;2023-05-27T03:21:15;95396.56;;;14.22;88.79
23363;BME280;11853;48.080;11.960;2023-05-27T03:23:41;95392.00;;;14.06;89.80
23363;BME280;11853;48.080;11.960;2023-05-27T03:26:07;95395.78;;;13.95;90.07
23363;BME280;11853;48.080;11.960;2023-05-27T03:28:32;95387.09;;;13.93;89.52
23363;BME280;11853;48.080;11.960;2023-05-27T03:30:58;95396.47;;;13.97;89.97
23363;BME280;11853;48.080;11.960;2023-05-27T03:33:23;95399.84;;;14.00;89.89
23363;BME280;11853;48.080;11.960;2023-05-27T03:35:49;95395.66;;;13.97;89.51
23363;BME280;11853;48.080;11.960;2023-05-27T03:41:27;95398.31;;;13.97;89.66
23363;BME280;11853;48.080;11.960;2023-05-27T03:43:53;95399.97;;;13.98;89.35
23363;BME280;11853;48.080;11.960;2023-05-27T03:46:19;95391.66;;;14.01;89.41
23363;BME280;11853;48.080;11.960;2023-05-27T03:48:44;95396.81;;;13.94;89.95
23363;BME280;11853;48.080;11.960;2023-05-27T03:51:10;95392.63;;;13.92;89.96
23363;BME280;11853;48.080;11.960;2023-05-27T03:54:00;95397.28;;;13.90;89.99
23363;BME280;11853;48.080;11.960;2023-05-27T03:56:25;95395.06;;;13.77;90.91
23363;BME280;11853;48.080;11.960;2023-05-27T03:58:52;95394.09;;;13.86;89.92
23363;BME280;11853;48.080;11.960;2023-05-27T04:01:17;95388.75;;;13.86;89.96
23363;BME280;11853;48.080;11.960;2023-05-27T04:03:43;95388.91;;;13.85;90.22
23363;BME280;11853;48.080;11.960;2023-05-27T04:06:09;95397.13;;;13.91;89.80
23363;BME280;11853;48.080;11.960;2023-05-27T04:08:35;95387.84;;;14.04;88.95
23363;BME280;11853;48.080;11.960;2023-05-27T04:11:01;95390.50;;;14.04;89.21
23363;BME280;11853;48.080;11.960;2023-05-27T04:13:27;95386.63;;;13.98;89.75
23363;BME280;11853;48.080;11.960;2023-05-27T04:15:53;95388.00;;;14.02;88.79
23363;BME280;11853;48.080;11.960;2023-05-27T04:18:19;95385.34;;;14.02;89.08
23363;BME280;11853;48.080;11.960;2023-05-27T04:20:45;95387.47;;;13.98;88.30
23363;BME280;11853;48.080;11.960;2023-05-27T04:23:12;95389.34;;;14.06;88.15
23363;BME280;11853;48.080;11.960;2023-05-27T04:25:39;95381.81;;;14.02;89.11
23363;BME280;11853;48.080;11.960;2023-05-27T04:28:04;95386.72;;;14.14;88.20
23363;BME280;11853;48.080;11.960;2023-05-27T04:30:31;95391.53;;;14.11;88.57
23363;BME280;11853;48.080;11.960;2023-05-27T04:32:56;95385.34;;;14.10;88.24
23363;BME280;11853;48.080;11.960;2023-05-27T04:35:23;95386.53;;;14.16;88.90
23363;BME280;11853;48.080;11.960;2023-05-27T04:37:49;95391.41;;;14.20;88.13
23363;BME280;11853;48.080;11.960;2023-05-27T04:40:14;95393.41;;;14.27;88.39
23363;BME280;11853;48.080;11.960;2023-05-27T04:42:40;95400.59;;;14.26;87.75
23363;BME280;11853;48.080;11.960;2023-05-27T04:45:09;95391.97;;;14.40;87.45
23363;BME280;11853;48.080;11.960;2023-05-27T04:47:38;95389.13;;;14.42;86.59
23363;BME280;11853;48.080;11.960;2023-05-27T04:50:07;95379.31;;;14.42;86.16
23363;BME280;11853;48.080;11.960;2023-05-27T04:52:33;95382.97;;;14.50;86.20
23363;BME280;11853;48.080;11.960;2023-05-27T04:55:05;95386.34;;;14.52;86.69
23363;BME280;11853;48.080;11.960;2023-05-27T04:57:32;95384.56;;;14.69;85.51
23363;BME280;11853;48.080;11.960;2023-05-27T04:59:58;95380.53;;;14.73;84.60
23363;BME280;11853;48.080;11.960;2023-05-27T05:02:43;95381.03;;;14.76;84.53
23363;BME280;11853;48.080;11.960;2023-05-27T05:05:12;95389.41;;;14.81;85.22
23363;BME280;11853;48.080;11.960;2023-05-27T05:07:38;95393.09;;;14.97;83.71
23363;BME280;11853;48.080;11.960;2023-05-27T05:10:12;95392.94;;;15.06;83.14
23363;BME280;11853;48.080;11.960;2023-05-27T05:12:38;95389.91;;;15.09;83.40
23363;BME280;11853;48.080;11.960;2023-05-27T05:15:05;95382.56;;;15.12;83.22
23363;BME280;11853;48.080;11.960;2023-05-27T05:17:31;95386.56;;;15.16;83.02
23363;BME280;11853;48.080;11.960;2023-05-27T05:19:56;95395.41;;;15.16;83.25
23363;BME280;11853;48.080;11.960;2023-05-27T05:22:22;95398.94;;;15.33;81.69
23363;BME280;11853;48.080;11.960;2023-05-27T05:24:51;95392.75;;;15.32;82.21
23363;BME280;11853;48.080;11.960;2023-05-27T05:27:16;95402.28;;;15.43;81.43
23363;BME280;11853;48.080;11.960;2023-05-27T05:29:42;95401.25;;;15.44;82.15
23363;BME280;11853;48.080;11.960;2023-05-27T05:32:09;95400.28;;;15.45;80.57
23363;BME280;11853;48.080;11.960;2023-05-27T05:34:39;95399.75;;;15.42;82.24
23363;BME280;11853;48.080;11.960;2023-05-27T05:37:05;95396.03;;;15.59;80.84
23363;BME280;11853;48.080;11.960;2023-05-27T05:39:31;95394.72;;;15.63;80.41
23363;BME280;11853;48.080;11.960;2023-05-27T05:41:57;95401.94;;;15.71;81.58
23363;BME280;11853;48.080;11.960;2023-05-27T05:44:23;95403.91;;;15.85;79.55
23363;BME280;11853;48.080;11.960;2023-05-27T05:46:51;95405.25;;;15.81;80.40
23363;BME280;11853;48.080;11.960;2023-05-27T05:49:18;95408.56;;;15.91;80.86
23363;BME280;11853;48.080;11.960;2023-05-27T05:51:44;95402.03;;;15.94;78.93
23363;BME280;11853;48.080;11.960;2023-05-27T05:54:10;95401.31;;;16.08;76.55
23363;BME280;11853;48.080;11.960;2023-05-27T05:56:36;95408.19;;;16.03;78.14
23363;BME280;11853;48.080;11.960;2023-05-27T05:59:01;95407.06;;;15.97;78.15
23363;BME280;11853;48.080;11.960;2023-05-27T06:01:27;95406.84;;;16.07;79.09
23363;BME280;11853;48.080;11.960;2023-05-27T06:03:53;95402.59;;;16.20;76.90
23363;BME280;11853;48.080;11.960;2023-05-27T06:06:19;95407.84;;;16.14;75.92
23363;BME280;11853;48.080;11.960;2023-05-27T06:08:45;95409.13;;;16.26;75.15
23363;BME280;11853;48.080;11.960;2023-05-27T06:11:11;95414.13;;;16.29;74.34
23363;BME280;11853;48.080;11.960;2023-05-27T06:13:37;95407.09;;;16.28;74.57
23363;BME280;11853;48.080;11.960;2023-05-27T06:16:03;95411.09;;;16.32;72.72
23363;BME280;11853;48.080;11.960;2023-05-27T06:18:28;95418.91;;;16.42;72.46
23363;BME280;11853;48.080;11.960;2023-05-27T06:20:54;95413.72;;;16.40;71.49
23363;BME280;11853;48.080;11.960;2023-05-27T06:23:20;95413.72;;;16.40;71.89
23363;BME280;11853;48.080;11.960;2023-05-27T06:25:45;95416.75;;;16.37;70.64
23363;BME280;11853;48.080;11.960;2023-05-27T06:28:11;95415.41;;;16.41;71.36
23363;BME280;11853;48.080;11.960;2023-05-27T06:30:40;95415.41;;;16.41;72.63
23363;BME280;11853;48.080;11.960;2023-05-27T06:33:06;95408.94;;;16.59;70.53
23363;BME280;11853;48.080;11.960;2023-05-27T06:35:32;95415.63;;;16.63;71.65
23363;BME280;11853;48.080;11.960;2023-05-27T06:37:59;95412.56;;;16.74;71.98
23363;BME280;11853;48.080;11.960;2023-05-27T06:40:24;95409.78;;;16.91;72.35
23363;BME280;11853;48.080;11.960;2023-05-27T06:42:50;95405.19;;;16.99;69.72
23363;BME280;11853;48.080;11.960;2023-05-27T06:45:16;95402.41;;;16.93;70.34
23363;BME280;11853;48.080;11.960;2023-05-27T06:47:41;95412.66;;;16.89;69.66
23363;BME280;11853;48.080;11.960;2023-05-27T06:50:07;95407.66;;;16.86;70.21
23363;BME280;11853;48.080;11.960;2023-05-27T06:52:33;95412.66;;;16.89;71.42
23363;BME280;11853;48.080;11.960;2023-05-27T06:54:59;95406.75;;;16.94;71.05
23363;BME280;11853;48.080;11.960;2023-05-27T06:57:25;95403.22;;;16.93;71.68
23363;BME280;11853;48.080;11.960;2023-05-27T06:59:51;95408.50;;;17.09;71.12
23363;BME280;11853;48.080;11.960;2023-05-27T07:02:16;95405.91;;;17.16;70.73
23363;BME280;11853;48.080;11.960;2023-05-27T07:04:42;95405.84;;;17.24;70.46
23363;BME280;11853;48.080;11.960;2023-05-27T07:07:08;95409.75;;;17.37;71.24
23363;BME280;11853;48.080;11.960;2023-05-27T07:09:33;95410.38;;;17.47;69.76
23363;BME280;11853;48.080;11.960;2023-05-27T07:12:01;95405.00;;;17.47;70.03
23363;BME280;11853;48.080;11.960;2023-05-27T07:14:27;95408.81;;;17.52;70.75
23363;BME280;11853;48.080;11.960;2023-05-27T07:16:53;95406.50;;;17.64;71.12
23363;BME280;11853;48.080;11.960;2023-05-27T07:19:19;95414.50;;;17.72;70.12
23363;BME280;11853;48.080;11.960;2023-05-27T07:21:44;95414.78;;;17.77;69.51
23363;BME280;11853;48.080;11.960;2023-05-27T07:24:20;95409.53;;;17.84;70.21
23363;BME280;11853;48.080;11.960;2023-05-27T07:26:45;95393.34;;;17.92;73.22
23363;BME280;11853;48.080;11.960;2023-05-27T07:29:11;95407.59;;;18.08;70.07
23363;BME280;11853;48.080;11.960;2023-05-27T07:31:37;95411.84;;;18.17;70.20
23363;BME280;11853;48.080;11.960;2023-05-27T07:34:02;95403.72;;;18.10;69.03
23363;BME280;11853;48.080;11.960;2023-05-27T07:36:29;95408.63;;;18.21;70.18
23363;BME280;11853;48.080;11.960;2023-05-27T07:38:54;95404.53;;;18.26;70.19
23363;BME280;11853;48.080;11.960;2023-05-27T07:41:20;95403.72;;;18.40;69.60
23363;BME280;11853;48.080;11.960;2023-05-27T07:43:46;95403.94;;;18.45;71.52
23363;BME280;11853;48.080;11.960;2023-05-27T07:46:12;95410.06;;;18.68;69.42
23363;BME280;11853;48.080;11.960;2023-05-27T07:48:38;95409.84;;;18.70;68.63
23363;BME280;11853;48.080;11.960;2023-05-27T07:51:03;95406.97;;;18.72;69.89
23363;BME280;11853;48.080;11.960;2023-05-27T07:53:29;95409.38;;;18.81;67.99
23363;BME280;11853;48.080;11.960;2023-05-27T07:55:55;95403.84;;;18.83;68.91
23363;BME280;11853;48.080;11.960;2023-05-27T07:58:20;95404.72;;;18.90;69.33
23363;BME280;11853;48.080;11.960;2023-05-27T08:00:46;95403.25;;;18.87;68.08
23363;BME280;11853;48.080;11.960;2023-05-27T08:03:12;95409.44;;;18.88;67.71
23363;BME280;11853;48.080;11.960;2023-05-27T08:05:37;95414.91;;;18.95;68.50
23363;BME280;11853;48.080;11.960;2023-05-27T08:08:03;95406.00;;;18.94;68.26
23363;BME280;11853;48.080;11.960;2023-05-27T08:10:29;95395.06;;;18.96;70.02
23363;BME280;11853;48.080;11.960;2023-05-27T08:12:55;95399.72;;;19.08;69.30
23363;BME280;11853;48.080;11.960;2023-05-27T08:15:20;95396.75;;;19.18;69.03
23363;BME280;11853;48.080;11.960;2023-05-27T08:17:46;95389.44;;;19.12;67.88
23363;BME280;11853;48.080;11.960;2023-05-27T08:20:12;95392.31;;;19.10;68.46
23363;BME280;11853;48.080;11.960;2023-05-27T08:22:38;95390.75;;;19.23;67.42
23363;BME280;11853;48.080;11.960;2023-05-27T08:25:04;95389.94;;;19.22;68.10
23363;BME280;11853;48.080;11.960;2023-05-27T08:27:49;95385.38;;;19.23;67.05
23363;BME280;11853;48.080;11.960;2023-05-27T08:30:16;95382.94;;;19.28;68.14
23363;BME280;11853;48.080;11.960;2023-05-27T08:32:43;95378.47;;;19.35;67.87
23363;BME280;11853;48.080;11.960;2023-05-27T08:35:10;95379.56;;;19.41;66.11
23363;BME280;11853;48.080;11.960;2023-05-27T08:37:37;95382.72;;;19.51;66.80
23363;BME280;11853;48.080;11.960;2023-05-27T08:40:03;95380.09;;;19.57;67.79
23363;BME280;11853;48.080;11.960;2023-05-27T08:42:32;95388.28;;;19.71;66.11
23363;BME280;11853;48.080;11.960;2023-05-27T08:44:58;95378.44;;;19.56;65.84
23363;BME280;11853;48.080;11.960;2023-05-27T08:47:26;95365.28;;;19.40;67.92
23363;BME280;11853;48.080;11.960;2023-05-27T08:49:53;95373.25;;;19.55;66.31
23363;BME280;11853;48.080;11.960;2023-05-27T08:52:19;95365.22;;;19.62;65.85
23363;BME280;11853;48.080;11.960;2023-05-27T08:54:48;95368.84;;;19.47;66.58
23363;BME280;11853;48.080;11.960;2023-05-27T08:57:16;95374.94;;;19.63;67.55
23363;BME280;11853;48.080;11.960;2023-05-27T08:59:42;95366.81;;;19.77;66.66
23363;BME280;11853;48.080;11.960;2023-05-27T09:02:11;95371.34;;;19.77;65.06
23363;BME280;11853;48.080;11.960;2023-05-27T09:04:38;95360.66;;;19.84;66.12
23363;BME280;11853;48.080;11.960;2023-05-27T09:07:07;95371.28;;;19.92;65.06
23363;BME280;11853;48.080;11.960;2023-05-27T09:09:33;95368.22;;;20.01;65.37
23363;BME280;11853;48.080;11.960;2023-05-27T09:11:59;95363.66;;;20.09;67.45
23363;BME280;11853;48.080;11.960;2023-05-27T09:14:27;95369.13;;;20.15;64.49
23363;BME280;11853;48.080;11.960;2023-05-27T09:16:54;95369.78;;;20.24;64.59
23363;BME280;11853;48.080;11.960;2023-05-27T09:19:20;95364.56;;;20.16;66.22
23363;BME280;11853;48.080;11.960;2023-05-27T09:21:47;95372.88;;;20.21;65.13
23363;BME280;11853;48.080;11.960;2023-05-27T09:24:13;95370.78;;;20.23;64.46
23363;BME280;11853;48.080;11.960;2023-05-27T09:26:39;95363.34;;;20.25;65.51
23363;BME280;11853;48.080;11.960;2023-05-27T09:29:08;95354.88;;;20.28;64.63
23363;BME280;11853;48.080;11.960;2023-05-27T09:31:40;95359.44;;;20.34;63.45
23363;BME280;11853;48.080;11.960;2023-05-27T09:34:13;95366.13;;;20.38;64.22
23363;BME280;11853;48.080;11.960;2023-05-27T09:36:49;95358.88;;;20.45;64.06
23363;BME280;11853;48.080;11.960;2023-05-27T09:39:19;95353.09;;;20.48;65.59
23363;BME280;11853;48.080;11.960;2023-05-27T09:41:55;95353.34;;;20.54;67.08
23363;BME280;11853;48.080;11.960;2023-05-27T09:44:28;95355.69;;;20.70;64.66
23363;BME280;11853;48.080;11.960;2023-05-27T09:46:56;95353.41;;;20.74;64.10
23363;BME280;11853;48.080;11.960;2023-05-27T09:49:25;95355.50;;;20.85;64.38
23363;BME280;11853;48.080;11.960;2023-05-27T09:51:55;95349.53;;;20.89;61.35
23363;BME280;11853;48.080;11.960;2023-05-27T09:54:23;95357.38;;;20.84;63.50
23363;BME280;11853;48.080;11.960;2023-05-27T09:56:49;95349.53;;;20.89;61.01
23363;BME280;11853;48.080;11.960;2023-05-27T09:59:15;95354.50;;;20.92;62.37
23363;BME280;11853;48.080;11.960;2023-05-27T10:01:41;95343.25;;;20.82;59.14
23363;BME280;11853;48.080;11.960;2023-05-27T10:04:10;95342.25;;;20.83;60.01
23363;BME280;11853;48.080;11.960;2023-05-27T10:06:37;95342.63;;;20.80;62.41
23363;BME280;11853;48.080;11.960;2023-05-27T10:09:05;95340.97;;;20.79;64.43
23363;BME280;11853;48.080;11.960;2023-05-27T10:11:32;95339.31;;;20.85;61.90
23363;BME280;11853;48.080;11.960;2023-05-27T10:14:01;95350.34;;;20.90;60.76
23363;BME280;11853;48.080;11.960;2023-05-27T10:16:27;95346.63;;;20.98;59.86
23363;BME280;11853;48.080;11.960;2023-05-27T10:18:54;95344.13;;;20.89;60.55
23363;BME280;11853;48.080;11.960;2023-05-27T10:21:22;95342.03;;;20.91;57.22
23363;BME280;11853;48.080;11.960;2023-05-27T10:23:59;95343.94;;;20.98;58.88
23363;BME280;11853;48.080;11.960;2023-05-27T10:26:40;95333.75;;;20.86;60.28
23363;BME280;11853;48.080;11.960;2023-05-27T10:29:14;95340.97;;;20.79;63.44
23363;BME280;11853;48.080;11.960;2023-05-27T10:34:11;95349.09;;;21.06;56.72
23363;BME280;11853;48.080;11.960;2023-05-27T10:36:38;95338.53;;;20.98;60.90
23363;BME280;11853;48.080;11.960;2023-05-27T10:39:13;95332.28;;;20.97;60.05
23363;BME280;11853;48.080;11.960;2023-05-27T10:41:43;95325.47;;;20.95;59.20
23363;BME280;11853;48.080;11.960;2023-05-27T10:44:10;95326.69;;;21.05;58.26
23363;BME280;11853;48.080;11.960;2023-05-27T10:46:43;95325.88;;;21.05;56.39
23363;BME280;11853;48.080;11.960;2023-05-27T10:49:35;95327.94;;;21.03;57.06
23363;BME280;11853;48.080;11.960;2023-05-27T10:52:13;95318.19;;;21.08;56.53
23363;BME280;11853;48.080;11.960;2023-05-27T10:54:40;95327.53;;;21.19;54.18
23363;BME280;11853;48.080;11.960;2023-05-27T10:57:07;95319.25;;;21.21;56.31
23363;BME280;11853;48.080;11.960;2023-05-27T10:59:48;95318.81;;;21.17;55.92
23363;BME280;11853;48.080;11.960;2023-05-27T11:02:14;95326.69;;;20.99;55.89
23363;BME280;11853;48.080;11.960;2023-05-27T11:04:39;95319.44;;;20.99;54.00
23363;BME280;11853;48.080;11.960;2023-05-27T11:07:05;95311.56;;;21.04;53.74
23363;BME280;11853;48.080;11.960;2023-05-27T11:09:48;95310.94;;;21.09;54.16
23363;BME280;11853;48.080;11.960;2023-05-27T11:12:15;95317.16;;;21.09;56.29
23363;BME280;11853;48.080;11.960;2023-05-27T11:14:42;95311.56;;;21.11;55.62
23363;BME280;11853;48.080;11.960;2023-05-27T11:17:12;95312.38;;;21.31;53.35
23363;BME280;11853;48.080;11.960;2023-05-27T11:19:39;95312.22;;;21.40;50.39
23363;BME280;11853;48.080;11.960;2023-05-27T11:22:07;95308.66;;;21.32;46.06
23363;BME280;11853;48.080;11.960;2023-05-27T11:24:33;95299.31;;;21.02;49.72
23363;BME280;11853;48.080;11.960;2023-05-27T11:26:59;95298.88;;;20.91;52.24
23363;BME280;11853;48.080;11.960;2023-05-27T11:29:25;95285.22;;;21.06;54.78
23363;BME280;11853;48.080;11.960;2023-05-27T11:31:53;95293.72;;;21.23;53.19
23363;BME280;11853;48.080;11.960;2023-05-27T11:34:19;95283.97;;;21.09;54.69
23363;BME280;11853;48.080;11.960;2023-05-27T11:36:48;95285.22;;;21.06;55.58
23363;BME280;11853;48.080;11.960;2023-05-27T11:39:14;95278.56;;;21.09;55.65
23363;BME280;11853;48.080;11.960;2023-05-27T11:41:50;95276.47;;;21.11;54.46
23363;BME280;11853;48.080;11.960;2023-05-27T11:44:17;95269.84;;;21.27;54.69
23363;BME280;11853;48.080;11.960;2023-05-27T11:46:44;95270.69;;;21.41;52.38
23363;BME280;11853;48.080;11.960;2023-05-27T11:49:12;95266.31;;;21.40;53.01
23363;BME280;11853;48.080;11.960;2023-05-27T11:51:40;95275.44;;;21.25;56.12
23363;BME280;11853;48.080;11.960;2023-05-27T11:54:06;95268.59;;;21.16;56.92
23363;BME280;11853;48.080;11.960;2023-05-27T11:56:32;95255.72;;;21.25;57.36
23363;BME280;11853;48.080;11.960;2023-05-27T11:58:59;95269.81;;;21.33;56.33
23363;BME280;11853;48.080;11.960;2023-05-27T12:01:25;95262.78;;;21.46;56.16
23363;BME280;11853;48.080;11.960;2023-05-27T12:03:51;95258.63;;;21.43;53.87
23363;BME280;11853;48.080;11.960;2023-05-27T12:06:17;95260.06;;;21.46;56.17
23363;BME280;11853;48.080;11.960;2023-05-27T12:08:43;95254.50;;;21.41;56.75
23363;BME280;11853;48.080;11.960;2023-05-27T12:11:09;95251.38;;;21.44;55.08
23363;BME280;11853;48.080;11.960;2023-05-27T12:13:35;95254.25;;;21.55;52.16
23363;BME280;11853;48.080;11.960;2023-05-27T12:16:01;95252.19;;;21.51;51.99
23363;BME280;11853;48.080;11.960;2023-05-27T12:18:28;95238.91;;;21.49;51.55
23363;BME280;11853;48.080;11.960;2023-05-27T12:20:55;95238.72;;;21.38;52.89
23363;BME280;11853;48.080;11.960;2023-05-27T12:23:21;95238.03;;;21.49;51.48
23363;BME280;11853;48.080;11.960;2023-05-27T12:25:46;95234.09;;;21.31;52.78
23363;BME280;11853;48.080;11.960;2023-05-27T12:28:12;95238.06;;;21.35;54.44
23363;BME280;11853;48.080;11.960;2023-05-27T12:30:38;95237.84;;;21.50;52.62
23363;BME280;11853;48.080;11.960;2023-05-27T12:33:04;95226.66;;;21.47;52.21
23363;BME280;11853;48.080;11.960;2023-05-27T12:35:30;95230.78;;;21.56;51.53
23363;BME280;11853;48.080;11.960;2023-05-27T12:37:57;95224.78;;;21.47;53.10
23363;BME280;11853;48.080;11.960;2023-05-27T12:40:23;95223.09;;;21.53;53.35
23363;BME280;11853;48.080;11.960;2023-05-27T12:42:49;95222.69;;;21.43;51.47
23363;BME280;11853;48.080;11.960;2023-05-27T12:45:14;95227.91;;;21.38;54.54
23363;BME280;11853;48.080;11.960;2023-05-27T12:47:40;95222.69;;;21.29;54.44
23363;BME280;11853;48.080;11.960;2023-05-27T12:50:07;95220.41;;;21.40;53.09
23363;BME280;11853;48.080;11.960;2023-05-27T12:52:33;95223.91;;;21.60;49.33
23363;BME280;11853;48.080;11.960;2023-05-27T12:55:01;95217.06;;;21.51;50.85